Nyk Constellation — V7NP4 — position and weather

sailwx.info

Track history (hours):
 
Tides and Currents Weather Stations Pressure Air Temp Water Temp Dewpoint Dewpoint Depression Visibility Wind Speed Wind Dir Waves Ship Positions

Nyk Constellation

Last reported at 2014-Nov-26 02:31 UTC. Time now 2014-Nov-26 03:05 UTC.
Position N 31°13' W 118°01'.

Length 294 m; draft 10.7 m.

Type: Cargo ship. MMSI: 538002992.

Date/timePositionNaut miles runAvg speedWind from/ knotsBaromVisibWave heightAir tempDewpointWater temp
2014-Nov-26 02:31N 31°13' W 118°01'1 1.0
2014-Nov-26 01:31N 31°14' W 118°02'1 1.1
2014-Nov-26 00:31N 31°15' W 118°03'2 1.1
2014-Nov-25 22:25N 31°17' W 118°04'1 1.1
2014-Nov-25 21:31N 31°18' W 118°04'1 1.0
2014-Nov-25 20:31N 31°19' W 118°05'2 0.8
2014-Nov-25 18:31N 31°20' W 118°06'1 0.7
2014-Nov-25 17:31N 31°21' W 118°06'1 0.8
2014-Nov-25 16:31N 31°22' W 118°06'1 0.9
2014-Nov-25 15:31N 31°23' W 118°06'1 1.1
2014-Nov-25 14:22N 31°24' W 118°06'1 1.1
2014-Nov-25 13:07N 31°25' W 118°06'1 1.2
2014-Nov-25 12:31N 31°26' W 118°06'1 1.1
2014-Nov-25 11:25N 31°27' W 118°05'1 1.1
2014-Nov-25 10:25N 31°28' W 118°05'1 1.1
2014-Nov-25 09:31N 31°29' W 118°06'1 0.9
2014-Nov-25 08:31N 31°30' W 118°06'1 0.8
2014-Nov-25 07:31N 31°31' W 118°06'1 0.8
2014-Nov-25 06:31N 31°32' W 118°06'1 0.9
2014-Nov-25 05:31N 31°33' W 118°05'1 1.0
2014-Nov-25 04:31N 31°34' W 118°05'1 1.2
2014-Nov-25 03:31N 31°35' W 118°05'1 1.2
2014-Nov-25 02:31N 31°36' W 118°05'3 1.1
2014-Nov-25 00:13N 31°38' W 118°06'1 1.1
2014-Nov-24 23:31N 31°39' W 118°07'1 1.1
2014-Nov-24 22:31N 31°40' W 118°07'1 1.1
2014-Nov-24 21:31N 31°41' W 118°08'1 1.0
2014-Nov-24 20:31N 31°42' W 118°08'1 0.6
2014-Nov-24 19:31N 31°42' W 118°09'1 0.9
2014-Nov-24 18:31N 31°43' W 118°09'1 0.9
2014-Nov-24 17:31N 31°44' W 118°10'1 0.9
2014-Nov-24 16:31N 31°44' W 118°10'1 0.9
2014-Nov-24 15:31N 31°45' W 118°11'1 0.8
2014-Nov-24 14:31N 31°45' W 118°12'1 0.9
2014-Nov-24 13:31N 31°46' W 118°13'1 0.8
2014-Nov-24 12:31N 31°46' W 118°13'1 0.8
2014-Nov-24 11:31N 31°47' W 118°14'1 0.7
2014-Nov-24 10:31N 31°47' W 118°15'1 0.7
2014-Nov-24 09:31N 31°47' W 118°16'1 0.7
2014-Nov-24 08:31N 31°47' W 118°17'1 0.6
2014-Nov-24 07:31N 31°48' W 118°17'1 0.8
2014-Nov-24 06:31N 31°48' W 118°18'1 0.9
2014-Nov-24 05:31N 31°49' W 118°18'1 1.1
2014-Nov-24 04:31N 31°50' W 118°19'1 1.3
2014-Nov-24 03:31N 31°51' W 118°20'1 1.4
2014-Nov-24 02:31N 31°52' W 118°22'1 1.4
2014-Nov-24 01:31N 31°53' W 118°23'1 1.5
2014-Nov-24 00:31N 31°54' W 118°24'1 1.5
2014-Nov-23 23:31N 31°55' W 118°25'2 1.6
2014-Nov-23 22:32N 31°56' W 118°27'2 1.6
2014-Nov-23 21:17N 31°57' W 118°28'1 1.4
2014-Nov-23 20:32N 31°58' W 118°29'2 1.3
2014-Nov-23 19:17N 31°59' W 118°31'3 1.2
2014-Nov-23 16:32N 32°00' W 118°34'6 2.9
2014-Nov-23 14:29N 32°02' W 118°41'1011.2
2014-Nov-23 13:33N 32°05' W 118°53'1111.1
2014-Nov-23 12:31N 32°08' W 119°06'1111.3
2014-Nov-23 11:33N 32°11' W 119°18'2711.4
2014-Nov-23 09:12N 32°17' W 119°49'811.9
2014-Nov-23 08:33N 32°21' W 119°57'20613.7
2014-Nov-22 17:32N 35°23' W 121°53'1313.5
2014-Nov-22 16:33N 35°35' W 122°01'1111.5
2014-Nov-22 15:33N 35°45' W 122°07'1211.6
2014-Nov-22 14:33N 35°55' W 122°14'1211.5
2014-Nov-22 13:30N 36°05' W 122°21'1111.5
2014-Nov-22 12:33N 36°15' W 122°26'1111.3
2014-Nov-22 11:33N 36°26' W 122°32'1111.2
2014-Nov-22 10:33N 36°36' W 122°38'1111.3
2014-Nov-22 09:33N 36°46' W 122°44'1111.4
2014-Nov-22 08:33N 36°56' W 122°50'1111.4
2014-Nov-22 07:33N 37°07' W 122°56'10 9.7
2014-Nov-22 06:33N 37°14' W 122°48'1211.9
2014-Nov-22 05:33N 37°26' W 122°44'1313.3
2014-Nov-22 04:33N 37°39' W 122°44'1110.8
2014-Nov-22 03:33N 37°47' W 122°35'1110.5
2014-Nov-22 02:33N 37°48' W 122°21'2 2.4
2014-Nov-22 01:33N 37°48' W 122°18'0 0.5
2014-Nov-22 00:32N 37°48' W 122°19'0 0.0
2014-Nov-21 23:32N 37°48' W 122°19'0 0.0
2014-Nov-21 22:32N 37°48' W 122°19'0 0.0
2014-Nov-21 21:32N 37°48' W 122°19'0 0.0
2014-Nov-21 20:32N 37°48' W 122°19'0 0.0
2014-Nov-21 19:32N 37°48' W 122°19'0 0.0
2014-Nov-21 18:32N 37°48' W 122°19'0 0.0
2014-Nov-21 17:32N 37°48' W 122°19'0 0.0
2014-Nov-21 16:32N 37°48' W 122°19'0 0.0
2014-Nov-21 15:32N 37°48' W 122°19'0 0.0
2014-Nov-21 14:32N 37°48' W 122°19'0 0.0
2014-Nov-21 13:32N 37°48' W 122°19'0 0.0
2014-Nov-21 12:32N 37°48' W 122°19'0 0.0
2014-Nov-21 11:32N 37°48' W 122°19'0 0.0
2014-Nov-21 10:32N 37°48' W 122°19'0 0.0
2014-Nov-21 09:32N 37°48' W 122°19'0 0.0
2014-Nov-21 08:32N 37°48' W 122°19'0 0.0
2014-Nov-21 07:32N 37°48' W 122°19'0 0.0
2014-Nov-21 06:32N 37°48' W 122°19'0 0.0
2014-Nov-21 05:32N 37°48' W 122°19'0 0.0
2014-Nov-21 04:32N 37°48' W 122°19'0 0.0
2014-Nov-21 03:32N 37°48' W 122°19'0 0.0
2014-Nov-21 02:32N 37°48' W 122°19'0 0.0
2014-Nov-21 01:32N 37°48' W 122°19'0 0.0
2014-Nov-21 00:32N 37°48' W 122°19'0 0.0
2014-Nov-20 23:32N 37°48' W 122°19'0 0.0
2014-Nov-20 22:32N 37°48' W 122°19'0 0.0
2014-Nov-20 21:32N 37°48' W 122°19'0 0.0
2014-Nov-20 20:32N 37°48' W 122°19'0 0.0
2014-Nov-20 19:32N 37°48' W 122°19'0 0.0
2014-Nov-20 18:32N 37°48' W 122°19'0 0.0
2014-Nov-20 17:32N 37°48' W 122°19'0 0.0
2014-Nov-20 16:32N 37°48' W 122°19'0 0.0
2014-Nov-20 15:29N 37°48' W 122°19'0 0.0
2014-Nov-20 14:32N 37°48' W 122°19'0 0.0
2014-Nov-20 13:32N 37°48' W 122°19'0 0.0
2014-Nov-20 12:32N 37°48' W 122°19'0 0.0
2014-Nov-20 11:32N 37°48' W 122°19'0 0.0
2014-Nov-20 10:32N 37°48' W 122°19'0 0.0
2014-Nov-20 09:32N 37°48' W 122°19'0 0.0
2014-Nov-20 08:32N 37°48' W 122°19'0 0.0
2014-Nov-20 07:32N 37°48' W 122°19'0 0.0
2014-Nov-20 06:29N 37°48' W 122°19'0 0.0
2014-Nov-20 05:32N 37°48' W 122°19'0 0.0
2014-Nov-20 04:32N 37°48' W 122°19'0 0.0
2014-Nov-20 03:32N 37°48' W 122°19'0 0.0
2014-Nov-20 02:32N 37°48' W 122°19'0 0.0
2014-Nov-20 01:32N 37°48' W 122°19'0 0.0
2014-Nov-20 00:32N 37°48' W 122°19'0 0.0
2014-Nov-19 23:32N 37°48' W 122°19'0 0.0
2014-Nov-19 22:32N 37°48' W 122°19'0 0.0
2014-Nov-19 21:32N 37°48' W 122°19'0 0.0
2014-Nov-19 20:32N 37°48' W 122°19'0 0.0
2014-Nov-19 19:32N 37°48' W 122°19'0 0.0
2014-Nov-19 18:32N 37°48' W 122°19'0 0.0
2014-Nov-19 17:32N 37°48' W 122°19'0 0.0
2014-Nov-19 16:32N 37°48' W 122°19'0 0.0
2014-Nov-19 15:32N 37°48' W 122°19'0 0.0
2014-Nov-19 14:32N 37°48' W 122°19'0 0.0
2014-Nov-19 13:32N 37°48' W 122°19'3 2.8
2014-Nov-19 12:33N 37°48' W 122°22'2 2.2
2014-Nov-19 11:32N 37°46' W 122°21'0 0.1
2014-Nov-19 10:32N 37°46' W 122°21'0 0.0
2014-Nov-19 09:32N 37°46' W 122°21'0 0.0
2014-Nov-19 08:32N 37°46' W 122°21'0 0.0
2014-Nov-19 07:32N 37°46' W 122°21'0 0.3
2014-Nov-19 06:32N 37°45' W 122°21'0 0.0
2014-Nov-19 05:32N 37°45' W 122°21'0 0.0
2014-Nov-19 04:32N 37°45' W 122°21'0 0.0
2014-Nov-19 03:32N 37°45' W 122°21'0 0.0
2014-Nov-19 02:29N 37°45' W 122°21'0 0.0
2014-Nov-19 01:32N 37°45' W 122°21'0 0.1
2014-Nov-19 00:32N 37°45' W 122°21'0 0.2
2014-Nov-18 23:32N 37°46' W 122°21'0 0.0
2014-Nov-18 22:32N 37°46' W 122°21'0 0.0
2014-Nov-18 21:32N 37°46' W 122°21'0 0.0
2014-Nov-18 20:32N 37°46' W 122°21'0 0.0
2014-Nov-18 19:32N 37°46' W 122°21'0 0.0
2014-Nov-18 18:32N 37°46' W 122°21'0 0.1
2014-Nov-18 17:32N 37°45' W 122°21'0 0.2
2014-Nov-18 16:32N 37°45' W 122°21'0 0.0
2014-Nov-18 15:32N 37°45' W 122°21'0 0.0
2014-Nov-18 14:32N 37°45' W 122°21'0 0.0
2014-Nov-18 13:32N 37°45' W 122°21'0 0.1
2014-Nov-18 12:33N 37°45' W 122°21'9 8.9
2014-Nov-18 11:34N 37°47' W 122°32'1010.3
2014-Nov-18 10:33N 37°46' W 122°45'9 8.6
2014-Nov-18 09:34N 37°50' W 122°55'1110.6
2014-Nov-18 08:34N 37°55' W 123°06'1111.0
2014-Nov-18 07:34N 38°03' W 123°17'1110.9
2014-Nov-18 06:34N 38°09' W 123°28'1110.6
2014-Nov-18 05:33N 38°14' W 123°40'1212.2
2014-Nov-18 04:34N 38°22' W 123°51'1313.1
2014-Nov-18 03:33N 38°31' W 124°03'1313.1
2014-Nov-18 02:33N 38°40' W 124°15'1313.4
2014-Nov-18 01:33N 38°53' W 124°21'1313.4
2014-Nov-18 00:33N 39°06' W 124°27'39915.4
2014-Nov-16 22:33N 45°43' W 125°25'1717.3
2014-Nov-16 21:33N 45°60' W 125°25'1716.8
2014-Nov-16 20:34N 46°17' W 125°25'1716.8
2014-Nov-16 19:33N 46°34' W 125°24'1716.5
2014-Nov-16 18:33N 46°50' W 125°24'7619.0
2014-Nov-16 14:33N 48°06' W 125°16'1717.4
2014-Nov-16 13:33N 48°23' W 125°09'1515.5
2014-Nov-16 12:33N 48°31' W 124°49'1817.8
2014-Nov-16 11:33N 48°25' W 124°24'1918.5
2014-Nov-16 10:33N 48°18' W 123°58'1818.3
2014-Nov-16 09:33N 48°15' W 123°31'1110.9
2014-Nov-16 08:33N 48°10' W 123°17'2019.8
2014-Nov-16 07:33N 48°11' W 122°47'2020.2
2014-Nov-16 06:34N 47°55' W 122°30'2020.3
2014-Nov-16 05:34N 47°35' W 122°26'1514.8
2014-Nov-16 04:33N 47°20' W 122°26'4 4.1
2014-Nov-16 03:33N 47°16' W 122°24'  
Track history (hours):
 
Tides and Currents Weather Stations Pressure Air Temp Water Temp Dewpoint Dewpoint Depression Visibility Wind Speed Wind Dir Waves Ship Positions

Nyk Constellation

Last reported at 2014-Nov-26 02:31 UTC. Time now 2014-Nov-26 03:05 UTC.
Position N 31°13' W 118°01'.

Length 294 m; draft 10.7 m.

Type: Cargo ship. MMSI: 538002992.

Date/timePositionNaut miles runAvg speedWind from/ knotsBaromVisibWave heightAir tempDewpointWater temp
2014-Nov-26 02:31N 31°13' W 118°01'1 1.0
2014-Nov-26 01:31N 31°14' W 118°02'1 1.1
2014-Nov-26 00:31N 31°15' W 118°03'2 1.1
2014-Nov-25 22:25N 31°17' W 118°04'1 1.1
2014-Nov-25 21:31N 31°18' W 118°04'1 1.0
2014-Nov-25 20:31N 31°19' W 118°05'2 0.8
2014-Nov-25 18:31N 31°20' W 118°06'1 0.7
2014-Nov-25 17:31N 31°21' W 118°06'1 0.8
2014-Nov-25 16:31N 31°22' W 118°06'1 0.9
2014-Nov-25 15:31N 31°23' W 118°06'1 1.1
2014-Nov-25 14:22N 31°24' W 118°06'1 1.1
2014-Nov-25 13:07N 31°25' W 118°06'1 1.2
2014-Nov-25 12:31N 31°26' W 118°06'1 1.1
2014-Nov-25 11:25N 31°27' W 118°05'1 1.1
2014-Nov-25 10:25N 31°28' W 118°05'1 1.1
2014-Nov-25 09:31N 31°29' W 118°06'1 0.9
2014-Nov-25 08:31N 31°30' W 118°06'1 0.8
2014-Nov-25 07:31N 31°31' W 118°06'1 0.8
2014-Nov-25 06:31N 31°32' W 118°06'1 0.9
2014-Nov-25 05:31N 31°33' W 118°05'1 1.0
2014-Nov-25 04:31N 31°34' W 118°05'1 1.2
2014-Nov-25 03:31N 31°35' W 118°05'1 1.2
2014-Nov-25 02:31N 31°36' W 118°05'3 1.1
2014-Nov-25 00:13N 31°38' W 118°06'1 1.1
2014-Nov-24 23:31N 31°39' W 118°07'1 1.1
2014-Nov-24 22:31N 31°40' W 118°07'1 1.1
2014-Nov-24 21:31N 31°41' W 118°08'1 1.0
2014-Nov-24 20:31N 31°42' W 118°08'1 0.6
2014-Nov-24 19:31N 31°42' W 118°09'1 0.9
2014-Nov-24 18:31N 31°43' W 118°09'1 0.9
2014-Nov-24 17:31N 31°44' W 118°10'1 0.9
2014-Nov-24 16:31N 31°44' W 118°10'1 0.9
2014-Nov-24 15:31N 31°45' W 118°11'1 0.8
2014-Nov-24 14:31N 31°45' W 118°12'1 0.9
2014-Nov-24 13:31N 31°46' W 118°13'1 0.8
2014-Nov-24 12:31N 31°46' W 118°13'1 0.8
2014-Nov-24 11:31N 31°47' W 118°14'1 0.7
2014-Nov-24 10:31N 31°47' W 118°15'1 0.7
2014-Nov-24 09:31N 31°47' W 118°16'1 0.7
2014-Nov-24 08:31N 31°47' W 118°17'1 0.6
2014-Nov-24 07:31N 31°48' W 118°17'1 0.8
2014-Nov-24 06:31N 31°48' W 118°18'1 0.9
2014-Nov-24 05:31N 31°49' W 118°18'1 1.1
2014-Nov-24 04:31N 31°50' W 118°19'1 1.3
2014-Nov-24 03:31N 31°51' W 118°20'1 1.4
2014-Nov-24 02:31N 31°52' W 118°22'1 1.4
2014-Nov-24 01:31N 31°53' W 118°23'1 1.5
2014-Nov-24 00:31N 31°54' W 118°24'1 1.5
2014-Nov-23 23:31N 31°55' W 118°25'2 1.6
2014-Nov-23 22:32N 31°56' W 118°27'2 1.6
2014-Nov-23 21:17N 31°57' W 118°28'1 1.4
2014-Nov-23 20:32N 31°58' W 118°29'2 1.3
2014-Nov-23 19:17N 31°59' W 118°31'3 1.2
2014-Nov-23 16:32N 32°00' W 118°34'6 2.9
2014-Nov-23 14:29N 32°02' W 118°41'1011.2
2014-Nov-23 13:33N 32°05' W 118°53'1111.1
2014-Nov-23 12:31N 32°08' W 119°06'1111.3
2014-Nov-23 11:33N 32°11' W 119°18'2711.4
2014-Nov-23 09:12N 32°17' W 119°49'811.9
2014-Nov-23 08:33N 32°21' W 119°57'20613.7
2014-Nov-22 17:32N 35°23' W 121°53'1313.5
2014-Nov-22 16:33N 35°35' W 122°01'1111.5
2014-Nov-22 15:33N 35°45' W 122°07'1211.6
2014-Nov-22 14:33N 35°55' W 122°14'1211.5
2014-Nov-22 13:30N 36°05' W 122°21'1111.5
2014-Nov-22 12:33N 36°15' W 122°26'1111.3
2014-Nov-22 11:33N 36°26' W 122°32'1111.2
2014-Nov-22 10:33N 36°36' W 122°38'1111.3
2014-Nov-22 09:33N 36°46' W 122°44'1111.4
2014-Nov-22 08:33N 36°56' W 122°50'1111.4
2014-Nov-22 07:33N 37°07' W 122°56'10 9.7
2014-Nov-22 06:33N 37°14' W 122°48'1211.9
2014-Nov-22 05:33N 37°26' W 122°44'1313.3
2014-Nov-22 04:33N 37°39' W 122°44'1110.8
2014-Nov-22 03:33N 37°47' W 122°35'1110.5
2014-Nov-22 02:33N 37°48' W 122°21'2 2.4
2014-Nov-22 01:33N 37°48' W 122°18'0 0.5
2014-Nov-22 00:32N 37°48' W 122°19'0 0.0
2014-Nov-21 23:32N 37°48' W 122°19'0 0.0
2014-Nov-21 22:32N 37°48' W 122°19'0 0.0
2014-Nov-21 21:32N 37°48' W 122°19'0 0.0
2014-Nov-21 20:32N 37°48' W 122°19'0 0.0
2014-Nov-21 19:32N 37°48' W 122°19'0 0.0
2014-Nov-21 18:32N 37°48' W 122°19'0 0.0
2014-Nov-21 17:32N 37°48' W 122°19'0 0.0
2014-Nov-21 16:32N 37°48' W 122°19'0 0.0
2014-Nov-21 15:32N 37°48' W 122°19'0 0.0
2014-Nov-21 14:32N 37°48' W 122°19'0 0.0
2014-Nov-21 13:32N 37°48' W 122°19'0 0.0
2014-Nov-21 12:32N 37°48' W 122°19'0 0.0
2014-Nov-21 11:32N 37°48' W 122°19'0 0.0
2014-Nov-21 10:32N 37°48' W 122°19'0 0.0
2014-Nov-21 09:32N 37°48' W 122°19'0 0.0
2014-Nov-21 08:32N 37°48' W 122°19'0 0.0
2014-Nov-21 07:32N 37°48' W 122°19'0 0.0
2014-Nov-21 06:32N 37°48' W 122°19'0 0.0
2014-Nov-21 05:32N 37°48' W 122°19'0 0.0
2014-Nov-21 04:32N 37°48' W 122°19'0 0.0
2014-Nov-21 03:32N 37°48' W 122°19'0 0.0
2014-Nov-21 02:32N 37°48' W 122°19'0 0.0
2014-Nov-21 01:32N 37°48' W 122°19'0 0.0
2014-Nov-21 00:32N 37°48' W 122°19'0 0.0
2014-Nov-20 23:32N 37°48' W 122°19'0 0.0
2014-Nov-20 22:32N 37°48' W 122°19'0 0.0
2014-Nov-20 21:32N 37°48' W 122°19'0 0.0
2014-Nov-20 20:32N 37°48' W 122°19'0 0.0
2014-Nov-20 19:32N 37°48' W 122°19'0 0.0
2014-Nov-20 18:32N 37°48' W 122°19'0 0.0
2014-Nov-20 17:32N 37°48' W 122°19'0 0.0
2014-Nov-20 16:32N 37°48' W 122°19'0 0.0
2014-Nov-20 15:29N 37°48' W 122°19'0 0.0
2014-Nov-20 14:32N 37°48' W 122°19'0 0.0
2014-Nov-20 13:32N 37°48' W 122°19'0 0.0
2014-Nov-20 12:32N 37°48' W 122°19'0 0.0
2014-Nov-20 11:32N 37°48' W 122°19'0 0.0
2014-Nov-20 10:32N 37°48' W 122°19'0 0.0
2014-Nov-20 09:32N 37°48' W 122°19'0 0.0
2014-Nov-20 08:32N 37°48' W 122°19'0 0.0
2014-Nov-20 07:32N 37°48' W 122°19'0 0.0
2014-Nov-20 06:29N 37°48' W 122°19'0 0.0
2014-Nov-20 05:32N 37°48' W 122°19'0 0.0
2014-Nov-20 04:32N 37°48' W 122°19'0 0.0
2014-Nov-20 03:32N 37°48' W 122°19'0 0.0
2014-Nov-20 02:32N 37°48' W 122°19'0 0.0
2014-Nov-20 01:32N 37°48' W 122°19'0 0.0
2014-Nov-20 00:32N 37°48' W 122°19'0 0.0
2014-Nov-19 23:32N 37°48' W 122°19'0 0.0
2014-Nov-19 22:32N 37°48' W 122°19'0 0.0
2014-Nov-19 21:32N 37°48' W 122°19'0 0.0
2014-Nov-19 20:32N 37°48' W 122°19'0 0.0
2014-Nov-19 19:32N 37°48' W 122°19'0 0.0
2014-Nov-19 18:32N 37°48' W 122°19'0 0.0
2014-Nov-19 17:32N 37°48' W 122°19'0 0.0
2014-Nov-19 16:32N 37°48' W 122°19'0 0.0
2014-Nov-19 15:32N 37°48' W 122°19'0 0.0
2014-Nov-19 14:32N 37°48' W 122°19'0 0.0
2014-Nov-19 13:32N 37°48' W 122°19'3 2.8
2014-Nov-19 12:33N 37°48' W 122°22'2 2.2
2014-Nov-19 11:32N 37°46' W 122°21'0 0.1
2014-Nov-19 10:32N 37°46' W 122°21'0 0.0
2014-Nov-19 09:32N 37°46' W 122°21'0 0.0
2014-Nov-19 08:32N 37°46' W 122°21'0 0.0
2014-Nov-19 07:32N 37°46' W 122°21'0 0.3
2014-Nov-19 06:32N 37°45' W 122°21'0 0.0
2014-Nov-19 05:32N 37°45' W 122°21'0 0.0
2014-Nov-19 04:32N 37°45' W 122°21'0 0.0
2014-Nov-19 03:32N 37°45' W 122°21'0 0.0
2014-Nov-19 02:29N 37°45' W 122°21'0 0.0
2014-Nov-19 01:32N 37°45' W 122°21'0 0.1
2014-Nov-19 00:32N 37°45' W 122°21'0 0.2
2014-Nov-18 23:32N 37°46' W 122°21'0 0.0
2014-Nov-18 22:32N 37°46' W 122°21'0 0.0
2014-Nov-18 21:32N 37°46' W 122°21'0 0.0
2014-Nov-18 20:32N 37°46' W 122°21'0 0.0
2014-Nov-18 19:32N 37°46' W 122°21'0 0.0
2014-Nov-18 18:32N 37°46' W 122°21'0 0.1
2014-Nov-18 17:32N 37°45' W 122°21'0 0.2
2014-Nov-18 16:32N 37°45' W 122°21'0 0.0
2014-Nov-18 15:32N 37°45' W 122°21'0 0.0
2014-Nov-18 14:32N 37°45' W 122°21'0 0.0
2014-Nov-18 13:32N 37°45' W 122°21'0 0.1
2014-Nov-18 12:33N 37°45' W 122°21'9 8.9
2014-Nov-18 11:34N 37°47' W 122°32'1010.3
2014-Nov-18 10:33N 37°46' W 122°45'9 8.6
2014-Nov-18 09:34N 37°50' W 122°55'1110.6
2014-Nov-18 08:34N 37°55' W 123°06'1111.0
2014-Nov-18 07:34N 38°03' W 123°17'1110.9
2014-Nov-18 06:34N 38°09' W 123°28'1110.6
2014-Nov-18 05:33N 38°14' W 123°40'1212.2
2014-Nov-18 04:34N 38°22' W 123°51'1313.1
2014-Nov-18 03:33N 38°31' W 124°03'1313.1
2014-Nov-18 02:33N 38°40' W 124°15'1313.4
2014-Nov-18 01:33N 38°53' W 124°21'1313.4
2014-Nov-18 00:33N 39°06' W 124°27'39915.4
2014-Nov-16 22:33N 45°43' W 125°25'1717.3
2014-Nov-16 21:33N 45°60' W 125°25'1716.8
2014-Nov-16 20:34N 46°17' W 125°25'1716.8
2014-Nov-16 19:33N 46°34' W 125°24'1716.5
2014-Nov-16 18:33N 46°50' W 125°24'7619.0
2014-Nov-16 14:33N 48°06' W 125°16'1717.4
2014-Nov-16 13:33N 48°23' W 125°09'1515.5
2014-Nov-16 12:33N 48°31' W 124°49'1817.8
2014-Nov-16 11:33N 48°25' W 124°24'1918.5
2014-Nov-16 10:33N 48°18' W 123°58'1818.3
2014-Nov-16 09:33N 48°15' W 123°31'1110.9
2014-Nov-16 08:33N 48°10' W 123°17'2019.8
2014-Nov-16 07:33N 48°11' W 122°47'2020.2
2014-Nov-16 06:34N 47°55' W 122°30'2020.3
2014-Nov-16 05:34N 47°35' W 122°26'1514.8
2014-Nov-16 04:33N 47°20' W 122°26'4 4.1
2014-Nov-16 03:33N 47°16' W 122°24'  

Dump ship's entire track history